createdAt,value
2018-05-06T03:00:59.625Z,6.89
2018-05-06T03:02:01.200Z,6.89
2018-05-06T03:02:59.111Z,6.81
2018-05-06T03:03:59.164Z,6.84
2018-05-06T03:04:59.281Z,6.88
2018-05-06T03:05:59.442Z,6.89
2018-05-06T03:06:59.645Z,6.75
2018-05-06T03:07:59.805Z,6.82
2018-05-06T03:08:59.954Z,6.79
2018-05-06T03:10:00.159Z,6.87
2018-05-06T03:11:00.299Z,6.87
2018-05-06T03:12:00.408Z,6.81
2018-05-06T03:13:00.583Z,6.79
2018-05-06T03:14:00.819Z,6.79
2018-05-06T03:15:00.933Z,6.78
2018-05-06T03:16:01.061Z,6.81
2018-05-06T03:17:01.196Z,6.88
2018-05-06T03:18:01.406Z,6.82
2018-05-06T03:19:01.611Z,6.92
2018-05-06T03:20:01.684Z,6.81
2018-05-06T03:21:01.890Z,6.77
2018-05-06T03:22:02.031Z,6.74
2018-05-06T03:23:02.227Z,6.77
2018-05-06T03:24:02.357Z,6.67
2018-05-06T03:25:02.573Z,6.72
2018-05-06T03:26:02.723Z,6.69
2018-05-06T03:27:02.854Z,6.69
2018-05-06T03:28:03.108Z,6.67
2018-05-06T03:29:03.270Z,6.64
2018-05-06T03:30:03.382Z,6.67
2018-05-06T03:31:03.582Z,6.66
2018-05-06T03:32:03.707Z,6.77
2018-05-06T03:33:03.914Z,6.70
2018-05-06T03:34:04.051Z,6.75
2018-05-06T03:35:04.191Z,6.75
2018-05-06T03:36:04.412Z,6.77
2018-05-06T03:37:04.537Z,6.78
2018-05-06T03:38:04.698Z,6.63
2018-05-06T03:39:04.877Z,6.66
2018-05-06T03:40:04.976Z,6.75
2018-05-06T03:41:05.177Z,6.70
2018-05-06T03:42:05.325Z,6.63
2018-05-06T03:43:05.531Z,6.60
2018-05-06T03:44:05.671Z,6.63
2018-05-06T03:45:05.852Z,6.67
2018-05-06T03:46:06.057Z,6.64
2018-05-06T03:47:06.118Z,6.56
2018-05-06T03:48:06.312Z,6.59
2018-05-06T03:49:06.439Z,6.60
2018-05-06T03:50:06.649Z,6.42
2018-05-06T03:51:06.777Z,6.41
2018-05-06T03:52:06.970Z,6.44
2018-05-06T03:53:07.070Z,6.38
2018-05-06T03:54:07.265Z,6.38
2018-05-06T03:55:07.402Z,6.30
2018-05-06T03:56:07.539Z,6.26
2018-05-06T03:57:07.706Z,6.35
2018-05-06T03:58:07.909Z,6.27
2018-05-06T03:59:08.009Z,6.31
2018-05-06T04:00:08.495Z,6.26
2018-05-06T04:01:08.381Z,6.24
2018-05-06T04:02:08.526Z,6.19
2018-05-06T04:03:08.676Z,6.19
2018-05-06T04:04:08.862Z,6.30
2018-05-06T04:05:09.029Z,6.17
2018-05-06T04:06:09.193Z,6.24
2018-05-06T04:07:09.291Z,6.20
2018-05-06T04:08:09.523Z,6.24
2018-05-06T04:09:09.696Z,6.30
2018-05-06T04:10:09.782Z,6.44
2018-05-06T04:11:09.948Z,6.48
2018-05-06T04:12:10.141Z,6.54
2018-05-06T04:13:10.261Z,6.63
2018-05-06T04:14:10.413Z,6.74
2018-05-06T04:15:10.564Z,6.74
2018-05-06T04:16:10.790Z,6.78
2018-05-06T04:17:10.926Z,6.82
2018-05-06T04:18:11.076Z,6.81
2018-05-06T04:19:11.281Z,6.84
2018-05-06T04:20:11.398Z,6.93
2018-05-06T04:21:11.596Z,6.84
2018-05-06T04:22:11.716Z,6.79
2018-05-06T04:23:11.914Z,6.77
2018-05-06T04:24:12.062Z,6.74
2018-05-06T04:25:12.182Z,6.79
2018-05-06T04:26:12.417Z,6.79
2018-05-06T04:27:12.474Z,6.81
2018-05-06T04:28:12.705Z,6.85
2018-05-06T04:29:12.826Z,6.78
2018-05-06T04:30:13.095Z,6.85
2018-05-06T04:31:13.149Z,6.93
2018-05-06T04:32:13.371Z,6.92
2018-05-06T04:33:13.487Z,6.93
2018-05-06T04:34:13.688Z,6.96
2018-05-06T04:35:13.824Z,6.93
2018-05-06T04:36:13.998Z,7.00
2018-05-06T04:37:14.119Z,7.00
2018-05-06T04:38:14.279Z,7.02
2018-05-06T04:39:14.476Z,7.13
2018-05-06T04:40:14.615Z,7.06
2018-05-06T04:41:14.812Z,7.06
2018-05-06T04:42:14.928Z,7.06
2018-05-06T04:43:15.129Z,7.06
2018-05-06T04:44:15.287Z,7.00
2018-05-06T04:45:15.487Z,6.97
2018-05-06T04:46:15.581Z,6.87
2018-05-06T04:47:15.800Z,6.84
2018-05-06T04:48:15.899Z,6.84
2018-05-06T04:49:16.059Z,6.92
2018-05-06T04:50:16.257Z,6.81
2018-05-06T04:51:16.399Z,6.84
2018-05-06T04:52:16.579Z,6.85
2018-05-06T04:53:16.731Z,6.84
2018-05-06T04:54:16.913Z,6.85
2018-05-06T04:55:17.059Z,6.81
2018-05-06T04:56:17.183Z,6.82
2018-05-06T04:57:17.456Z,6.84
2018-05-06T04:58:17.490Z,6.93
2018-05-06T04:59:17.678Z,6.87
2018-05-06T05:00:17.748Z,6.89
2018-05-06T05:01:17.955Z,6.85
2018-05-06T05:02:18.163Z,6.89
2018-05-06T05:03:18.260Z,6.96
2018-05-06T05:04:18.491Z,6.95
2018-05-06T05:05:18.655Z,7.00
2018-05-06T05:06:18.808Z,7.02
2018-05-06T05:07:18.975Z,7.10
2018-05-06T05:08:19.150Z,7.15
2018-05-06T05:09:19.336Z,7.05
2018-05-06T05:10:19.530Z,7.15
2018-05-06T05:11:19.619Z,7.11
2018-05-06T05:12:19.739Z,7.14
2018-05-06T05:13:19.952Z,7.17
2018-05-06T05:14:20.094Z,7.29
2018-05-06T05:15:20.267Z,7.17
2018-05-06T05:16:20.429Z,7.25
2018-05-06T05:17:20.565Z,7.36
2018-05-06T05:18:20.806Z,7.23
2018-05-06T05:19:20.911Z,7.28
2018-05-06T05:20:21.091Z,7.40
2018-05-06T05:21:21.162Z,7.47
2018-05-06T05:22:21.419Z,7.50
2018-05-06T05:23:21.583Z,7.63
2018-05-06T05:24:21.741Z,7.61
2018-05-06T05:25:21.829Z,7.76
2018-05-06T05:26:22.060Z,7.70
2018-05-06T05:27:22.179Z,7.75
2018-05-06T05:28:22.387Z,7.85
2018-05-06T05:29:22.597Z,7.95
2018-05-06T05:30:22.639Z,7.97
2018-05-06T05:31:22.843Z,8.05
2018-05-06T05:32:23.040Z,8.10
2018-05-06T05:33:23.081Z,8.19
2018-05-06T05:34:23.351Z,8.23
2018-05-06T05:35:23.414Z,8.27
2018-05-06T05:36:23.636Z,8.36
2018-05-06T05:37:23.806Z,8.45
2018-05-06T05:38:23.947Z,8.55
2018-05-06T05:39:24.148Z,8.61
2018-05-06T05:40:24.306Z,8.69
2018-05-06T05:41:24.463Z,8.87
2018-05-06T05:42:24.583Z,8.94
2018-05-06T05:43:24.809Z,8.88
2018-05-06T05:44:24.973Z,8.92
2018-05-06T05:45:25.099Z,9.13
2018-05-06T05:46:25.289Z,9.22
2018-05-06T05:47:25.418Z,9.21
2018-05-06T05:48:25.581Z,9.32
2018-05-06T05:49:25.768Z,9.44
2018-05-06T05:50:25.844Z,9.44
2018-05-06T05:51:26.044Z,9.55
2018-05-06T05:52:26.183Z,9.58
2018-05-06T05:53:26.405Z,9.72
2018-05-06T05:54:26.494Z,9.74
2018-05-06T05:55:26.710Z,9.80
2018-05-06T05:56:26.862Z,9.86
2018-05-06T05:57:26.983Z,9.98
2018-05-06T05:58:27.214Z,9.97
2018-05-06T05:59:27.393Z,10.01
2018-05-06T06:00:27.450Z,10.13
2018-05-06T06:01:27.761Z,10.22
2018-05-06T06:02:27.887Z,10.30
2018-05-06T06:03:28.025Z,10.40
2018-05-06T06:04:28.167Z,10.37
2018-05-06T06:05:28.368Z,10.51
2018-05-06T06:06:28.424Z,10.61
2018-05-06T06:07:28.627Z,10.75
2018-05-06T06:08:28.808Z,10.89
2018-05-06T06:09:28.978Z,10.99
2018-05-06T06:10:29.147Z,11.00
2018-05-06T06:11:29.266Z,11.08
2018-05-06T06:13:30.295Z,11.30
2018-05-06T06:14:30.863Z,11.33
2018-05-06T06:15:31.755Z,11.55
2018-05-06T06:16:30.104Z,11.54
2018-05-06T06:17:30.302Z,11.69
2018-05-06T06:18:30.468Z,11.77
2018-05-06T06:19:30.641Z,11.91
2018-05-06T06:20:30.800Z,12.09
2018-05-06T06:21:30.942Z,12.15
2018-05-06T06:22:31.051Z,12.22
2018-05-06T06:23:31.258Z,12.36
2018-05-06T06:24:31.404Z,12.45
2018-05-06T06:25:31.554Z,12.47
2018-05-06T06:26:31.712Z,12.60
2018-05-06T06:27:31.933Z,12.78
2018-05-06T06:28:32.078Z,12.76
2018-05-06T06:29:32.247Z,12.95
2018-05-06T06:30:32.390Z,13.13
2018-05-06T06:31:32.581Z,13.15
2018-05-06T06:32:32.753Z,13.28
2018-05-06T06:33:32.905Z,13.39
2018-05-06T06:34:33.032Z,13.49
2018-05-06T06:35:33.129Z,13.56
2018-05-06T06:36:33.426Z,13.63
2018-05-06T06:37:33.599Z,13.83
2018-05-06T06:38:33.691Z,13.78
2018-05-06T06:39:33.888Z,13.93
2018-05-06T06:40:33.993Z,13.99
2018-05-06T06:41:34.396Z,14.14
2018-05-06T06:42:34.305Z,14.17
2018-05-06T06:43:34.493Z,14.29
2018-05-06T06:44:34.616Z,14.33
2018-05-06T06:45:34.738Z,14.35
2018-05-06T06:46:34.948Z,14.50
2018-05-06T06:47:35.164Z,14.54
2018-05-06T06:48:35.325Z,14.58
2018-05-06T06:49:35.657Z,14.72
2018-05-06T06:50:35.891Z,14.81
2018-05-06T06:51:36.128Z,14.99
2018-05-06T06:52:36.035Z,15.10
2018-05-06T06:53:36.232Z,15.24
2018-05-06T06:54:36.313Z,15.27
2018-05-06T06:57:18.042Z,15.40
2018-05-06T06:58:18.073Z,15.43
2018-05-06T06:59:18.287Z,15.57
2018-05-06T07:00:18.490Z,15.64
2018-05-06T07:01:18.603Z,15.73
2018-05-06T07:02:18.724Z,15.79
2018-05-06T07:03:18.894Z,15.72
2018-05-06T07:04:19.099Z,15.84
2018-05-06T07:05:19.252Z,15.92
2018-05-06T07:06:19.422Z,16.04
2018-05-06T07:07:19.506Z,16.09
2018-05-06T07:08:19.719Z,16.31
2018-05-06T07:09:19.906Z,16.43
2018-05-06T07:10:20.093Z,16.51
2018-05-06T07:11:20.214Z,16.58
2018-05-06T07:12:20.325Z,16.71
2018-05-06T07:13:20.580Z,16.75
2018-05-06T07:14:20.756Z,16.76
2018-05-06T07:15:20.858Z,16.97
2018-05-06T07:16:21.011Z,17.06
2018-05-06T07:17:21.267Z,17.16
2018-05-06T07:18:21.398Z,17.27
2018-05-06T07:19:21.577Z,17.36
2018-05-06T07:20:21.740Z,17.41
2018-05-06T07:21:21.860Z,17.39
2018-05-06T07:22:22.017Z,17.67
2018-05-06T07:23:22.321Z,17.71
2018-05-06T07:24:22.367Z,17.97
2018-05-06T07:25:22.565Z,17.97
2018-05-06T07:26:22.753Z,17.87
2018-05-06T07:27:22.911Z,18.03
2018-05-06T07:28:23.127Z,18.01
2018-05-06T07:29:23.256Z,18.00
2018-05-06T07:30:23.411Z,17.94
2018-05-06T07:31:23.543Z,18.13
2018-05-06T07:32:23.709Z,18.05
2018-05-06T07:33:23.837Z,18.29
2018-05-06T07:34:23.986Z,18.29
2018-05-06T07:35:24.184Z,18.41
2018-05-06T07:36:24.382Z,18.23
2018-05-06T07:37:24.543Z,18.23
2018-05-06T07:38:24.753Z,18.41
2018-05-06T07:39:24.895Z,18.38
2018-05-06T07:40:25.065Z,18.38
2018-05-06T07:41:25.200Z,18.28
2018-05-06T07:42:25.388Z,18.22
2018-05-06T07:43:25.496Z,18.34
2018-05-06T07:44:25.657Z,18.43
2018-05-06T07:45:25.845Z,18.58
2018-05-06T07:46:26.004Z,18.38
2018-05-06T07:47:26.212Z,18.41
2018-05-06T07:48:26.415Z,18.62
2018-05-06T07:49:26.619Z,18.88
2018-05-06T07:50:26.751Z,19.15
2018-05-06T07:51:26.923Z,19.47
2018-05-06T07:52:27.038Z,19.84
2018-05-06T07:53:27.241Z,20.13
2018-05-06T07:54:27.337Z,20.44
2018-05-06T07:55:27.543Z,20.70
2018-05-06T07:56:27.714Z,21.09
2018-05-06T07:57:27.901Z,21.52
2018-05-06T07:58:28.077Z,21.61
2018-05-06T07:59:28.255Z,21.80
2018-05-06T08:00:28.354Z,22.11
2018-05-06T08:01:28.624Z,22.38
2018-05-06T08:02:29.434Z,22.55
2018-05-06T08:03:29.020Z,22.96
2018-05-06T08:04:29.180Z,23.34
2018-05-06T08:05:29.331Z,23.55
2018-05-06T08:06:29.443Z,23.40
2018-05-06T08:07:29.696Z,23.39
2018-05-06T08:08:29.850Z,23.86
2018-05-06T08:09:29.969Z,23.96
2018-05-06T08:10:30.135Z,23.88
2018-05-06T08:11:30.322Z,23.73
2018-05-06T08:12:30.521Z,23.91
2018-05-06T08:13:30.674Z,23.81
2018-05-06T08:14:30.786Z,24.17
2018-05-06T08:15:30.946Z,24.47
2018-05-06T08:16:31.299Z,24.68
2018-05-06T08:17:31.324Z,24.40
2018-05-06T08:18:31.531Z,24.68
2018-05-06T08:19:31.614Z,25.06
2018-05-06T08:20:31.836Z,25.16
2018-05-06T08:21:31.976Z,24.86
2018-05-06T08:22:32.117Z,24.95
2018-05-06T08:23:32.266Z,25.01
2018-05-06T08:24:32.538Z,24.91
2018-05-06T08:25:32.682Z,24.47
2018-05-06T08:26:32.769Z,24.50
2018-05-06T08:27:32.988Z,24.58
2018-05-06T08:28:33.180Z,24.39
2018-05-06T08:29:33.341Z,24.60
2018-05-06T08:30:33.563Z,24.77
2018-05-06T08:31:33.728Z,24.51
2018-05-06T08:32:33.883Z,24.65
2018-05-06T08:33:34.035Z,24.36
2018-05-06T08:34:34.236Z,24.53
2018-05-06T08:35:34.371Z,24.39
2018-05-06T08:36:34.551Z,24.40
2018-05-06T08:37:34.736Z,24.43
2018-05-06T08:38:34.876Z,24.85
2018-05-06T08:39:35.070Z,25.04
2018-05-06T08:40:35.202Z,24.65
2018-05-06T08:41:35.394Z,24.92
2018-05-06T08:42:35.632Z,25.06
2018-05-06T08:43:35.714Z,25.25
2018-05-06T08:44:35.823Z,25.43
2018-05-06T08:45:36.041Z,25.10
2018-05-06T08:46:36.237Z,25.07
2018-05-06T08:47:36.326Z,25.14
2018-05-06T08:48:36.571Z,25.53
2018-05-06T08:49:36.701Z,25.43
2018-05-06T08:50:36.880Z,25.21
2018-05-06T08:51:37.101Z,24.74
2018-05-06T08:52:37.210Z,24.63
2018-05-06T08:53:37.398Z,24.39
2018-05-06T08:54:37.495Z,24.30
2018-05-06T08:55:37.680Z,24.21
2018-05-06T08:56:38.034Z,23.80
2018-05-06T08:57:37.933Z,23.37
2018-05-06T08:58:38.150Z,23.15
2018-05-06T08:59:38.420Z,22.76
2018-05-06T09:00:38.552Z,22.65
2018-05-06T09:01:38.697Z,22.26
2018-05-06T09:02:38.828Z,22.18
2018-05-06T09:03:39.039Z,21.99
2018-05-06T09:04:39.152Z,21.85
2018-05-06T09:05:39.382Z,21.69
2018-05-06T09:06:39.496Z,21.75
2018-05-06T09:07:39.669Z,21.73
2018-05-06T09:08:39.859Z,21.93
2018-05-06T09:09:40.053Z,22.04
2018-05-06T09:10:40.295Z,22.11
2018-05-06T09:11:40.468Z,22.10
2018-05-06T09:12:40.600Z,22.13
2018-05-06T09:13:40.846Z,22.35
2018-05-06T09:14:41.028Z,22.41
2018-05-06T09:15:41.131Z,22.54
2018-05-06T09:16:41.322Z,22.69
2018-05-06T09:17:41.472Z,22.90
2018-05-06T09:18:41.596Z,22.98
2018-05-06T09:19:41.866Z,22.98
2018-05-06T09:20:41.980Z,22.99
2018-05-06T09:21:42.203Z,23.08
2018-05-06T09:22:42.368Z,23.25
2018-05-06T09:23:42.487Z,23.27
2018-05-06T09:24:42.702Z,23.61
2018-05-06T09:25:42.807Z,23.77
2018-05-06T09:26:43.095Z,24.16
2018-05-06T09:27:43.284Z,24.60
2018-05-06T09:28:43.212Z,24.93
2018-05-06T09:29:43.494Z,24.88
2018-05-06T09:30:43.670Z,25.23
2018-05-06T09:31:43.829Z,25.28
2018-05-06T09:32:44.000Z,25.28
2018-05-06T09:33:44.370Z,25.31
2018-05-06T09:34:45.903Z,25.87
2018-05-06T09:35:45.281Z,26.28
2018-05-06T09:36:44.917Z,26.80
2018-05-06T09:37:45.409Z,27.08
2018-05-06T09:38:45.320Z,27.59
2018-05-06T09:39:45.584Z,26.93
2018-05-06T09:40:45.822Z,27.17
2018-05-06T09:41:47.655Z,27.08
2018-05-06T09:42:48.285Z,26.90
2018-05-06T09:43:47.061Z,27.14
2018-05-06T09:44:46.399Z,27.10
2018-05-06T09:45:46.551Z,27.30
2018-05-06T09:46:46.744Z,27.48
2018-05-06T09:47:47.206Z,27.63
2018-05-06T09:48:47.163Z,27.36
2018-05-06T09:49:47.212Z,27.83
2018-05-06T09:50:47.435Z,28.10
2018-05-06T09:51:47.577Z,28.25
2018-05-06T09:52:47.788Z,28.66
2018-05-06T09:53:48.000Z,28.38
2018-05-06T09:54:49.054Z,28.76
2018-05-06T09:55:49.516Z,28.93
2018-05-06T09:56:50.775Z,29.01
2018-05-06T09:57:51.564Z,29.22
2018-05-06T09:59:05.507Z,29.10
2018-05-06T10:20:27.764Z,29.98
2018-05-06T10:21:27.222Z,29.90
2018-05-06T10:22:30.003Z,30.25
2018-05-06T10:23:32.070Z,30.19
2018-05-06T10:24:31.377Z,29.91
2018-05-06T10:25:30.687Z,29.57
2018-05-06T10:26:29.393Z,29.78
2018-05-06T10:27:27.723Z,29.81
2018-05-06T10:28:25.862Z,30.28
2018-05-06T10:29:25.806Z,30.48
2018-05-06T10:30:26.082Z,30.32
2018-05-06T10:31:26.106Z,30.59
2018-05-06T10:32:26.199Z,30.62
2018-05-06T10:33:26.513Z,30.54
2018-05-06T10:34:26.661Z,30.28
2018-05-06T10:35:27.024Z,29.88
2018-05-06T10:36:26.994Z,29.93
2018-05-06T10:37:27.299Z,29.98
2018-05-06T10:38:27.416Z,29.56
2018-05-06T10:39:27.591Z,29.98
2018-05-06T10:40:27.684Z,29.73
2018-05-06T10:41:27.948Z,29.81
2018-05-06T10:42:28.142Z,29.88
2018-05-06T10:43:28.879Z,30.08
2018-05-06T10:44:28.678Z,30.21
2018-05-06T10:45:28.766Z,29.81
2018-05-06T10:46:28.796Z,30.03
2018-05-06T10:47:29.004Z,30.08
2018-05-06T10:48:29.193Z,30.12
2018-05-06T10:49:29.384Z,30.16
2018-05-06T10:50:29.664Z,30.62
2018-05-06T10:51:29.921Z,30.43
2018-05-06T10:52:30.512Z,30.34
2018-05-06T10:53:30.296Z,29.98
2018-05-06T10:54:30.318Z,30.48
2018-05-06T10:55:30.547Z,29.98
2018-05-06T10:56:30.693Z,30.30
2018-05-06T10:57:31.249Z,30.57
2018-05-06T10:58:31.469Z,30.65
2018-05-06T10:59:31.417Z,30.73
2018-05-06T11:00:31.425Z,31.07
2018-05-06T11:01:32.108Z,31.27
2018-05-06T11:02:31.835Z,31.40
2018-05-06T11:03:32.101Z,31.34
2018-05-06T11:04:32.225Z,30.92
2018-05-06T11:05:32.334Z,30.96
2018-05-06T11:06:32.454Z,31.05
2018-05-06T11:07:32.612Z,31.43
2018-05-06T11:08:32.818Z,31.51
2018-05-06T11:09:32.982Z,31.14
2018-05-06T11:10:33.246Z,31.12
2018-05-06T11:11:35.944Z,31.29
2018-05-06T11:12:34.853Z,31.46
2018-05-06T11:13:35.146Z,31.36
2018-05-06T11:14:34.266Z,31.56
2018-05-06T11:15:35.116Z,32.08
2018-05-06T11:16:34.475Z,32.56
2018-05-06T11:17:34.530Z,31.87
2018-05-06T11:18:35.256Z,30.87
2018-05-06T11:19:35.239Z,31.15
2018-05-06T11:20:35.287Z,31.10
2018-05-06T11:21:36.034Z,30.88
2018-05-06T11:22:37.886Z,31.15
2018-05-06T11:23:37.504Z,31.06
2018-05-06T11:42:11.942Z,31.93
2018-05-06T11:46:02.160Z,31.61
2018-05-06T11:49:19.860Z,32.41
2018-05-06T11:50:04.921Z,32.04
2018-05-06T11:50:59.216Z,32.11
2018-05-06T11:51:56.775Z,32.19
2018-05-06T11:52:57.645Z,32.65
2018-05-06T11:53:57.054Z,32.59
2018-05-06T11:54:58.439Z,32.01
2018-05-06T11:57:25.652Z,32.46
2018-05-06T11:58:02.731Z,32.56
2018-05-06T11:59:30.667Z,32.63
2018-05-06T12:00:06.120Z,32.65
2018-05-06T12:01:03.145Z,32.56
2018-05-06T12:02:11.726Z,32.07
2018-05-06T12:11:19.519Z,33.07
2018-05-06T12:12:20.216Z,33.07
2018-05-06T12:13:22.021Z,32.70
2018-05-06T12:14:20.619Z,32.59
2018-05-06T12:15:18.383Z,32.60
2018-05-06T12:16:18.601Z,33.04
2018-05-06T12:17:18.684Z,32.86
2018-05-06T12:18:18.897Z,33.36
2018-05-06T12:19:19.049Z,33.39
2018-05-06T12:20:19.219Z,33.11
2018-05-06T12:21:19.436Z,33.52
2018-05-06T12:22:19.702Z,33.15
2018-05-06T12:23:19.699Z,32.95
2018-05-06T12:24:19.971Z,32.52
2018-05-06T12:25:20.097Z,32.33
2018-05-06T12:26:20.347Z,32.59
2018-05-06T12:27:20.496Z,32.90
2018-05-06T12:28:20.702Z,32.90
2018-05-06T12:29:20.787Z,33.27
2018-05-06T12:30:20.982Z,32.82
2018-05-06T12:31:21.179Z,33.04
2018-05-06T12:32:21.319Z,33.02
2018-05-06T12:33:21.547Z,33.23
2018-05-06T12:34:21.692Z,33.45
2018-05-06T12:35:21.877Z,33.53
2018-05-06T12:36:21.982Z,33.55
2018-05-06T12:37:22.243Z,33.43
2018-05-06T12:38:22.382Z,33.40
2018-05-06T12:39:22.544Z,33.04
2018-05-06T12:40:22.703Z,33.22
2018-05-06T12:41:22.889Z,33.55
2018-05-06T12:42:23.077Z,33.74
2018-05-06T12:43:23.235Z,34.11
2018-05-06T12:44:23.469Z,33.24
2018-05-06T12:45:23.627Z,33.17
2018-05-06T12:46:23.759Z,33.42
2018-05-06T12:47:23.962Z,33.46
2018-05-06T12:48:24.078Z,33.67
2018-05-06T12:49:24.407Z,33.84
2018-05-06T12:50:24.464Z,34.14
2018-05-06T12:51:24.654Z,33.69
2018-05-06T12:52:24.829Z,33.84
2018-05-06T12:53:24.977Z,33.30
2018-05-06T12:54:25.129Z,33.30
2018-05-06T12:55:25.347Z,33.47
2018-05-06T12:56:25.545Z,33.07
2018-05-06T12:57:25.669Z,33.23
2018-05-06T12:58:25.828Z,33.47
2018-05-06T12:59:26.101Z,33.83
2018-05-06T13:00:26.236Z,33.98
2018-05-06T13:01:26.466Z,33.50
2018-05-06T13:02:26.592Z,33.23
2018-05-06T13:03:26.735Z,33.08
2018-05-06T13:04:26.906Z,33.42
2018-05-06T13:05:27.199Z,33.52
2018-05-06T13:06:27.366Z,33.81
2018-05-06T13:07:27.530Z,33.80
2018-05-06T13:08:27.752Z,33.65
2018-05-06T13:09:27.887Z,33.40
2018-05-06T13:10:28.727Z,33.39
2018-05-06T13:11:28.790Z,33.02
2018-05-06T13:12:28.492Z,32.90
2018-05-06T13:13:28.844Z,32.74
2018-05-06T13:14:28.778Z,33.17
2018-05-06T13:15:28.923Z,33.50
2018-05-06T13:16:29.161Z,33.62
2018-05-06T13:17:29.313Z,33.77
2018-05-06T13:18:29.474Z,33.69
2018-05-06T13:19:29.654Z,33.94
2018-05-06T13:20:29.831Z,33.77
2018-05-06T13:21:30.007Z,33.98
2018-05-06T13:22:30.222Z,34.10
2018-05-06T13:23:30.391Z,33.94
2018-05-06T13:24:30.602Z,33.61
2018-05-06T13:25:30.794Z,33.50
2018-05-06T13:26:30.948Z,33.28
2018-05-06T13:27:31.072Z,33.53
2018-05-06T13:28:31.245Z,33.05
2018-05-06T13:29:31.520Z,32.22
2018-05-06T13:30:31.616Z,32.82
2018-05-06T13:31:31.870Z,33.02
2018-05-06T13:32:31.987Z,33.53
2018-05-06T13:33:32.125Z,33.57
2018-05-06T13:34:32.374Z,33.49
2018-05-06T13:35:32.523Z,33.07
2018-05-06T13:36:32.722Z,33.31
2018-05-06T13:37:32.847Z,33.47
2018-05-06T13:38:33.113Z,33.50
2018-05-06T13:39:33.276Z,33.76
2018-05-06T13:40:33.421Z,33.74
2018-05-06T13:41:33.604Z,33.98
2018-05-06T13:42:33.889Z,34.03
2018-05-06T13:43:33.927Z,34.29
2018-05-06T13:44:34.128Z,34.50
2018-05-06T13:45:34.327Z,33.99
2018-05-06T13:46:34.447Z,34.08
2018-05-06T13:47:34.667Z,33.95
2018-05-06T13:48:34.859Z,33.49
2018-05-06T13:49:34.976Z,33.73
2018-05-06T13:50:35.226Z,33.92
2018-05-06T13:51:35.389Z,33.74
2018-05-06T13:52:35.510Z,32.95
2018-05-06T13:53:35.783Z,32.26
2018-05-06T13:54:35.960Z,32.31
2018-05-06T13:55:36.138Z,32.49
2018-05-06T13:56:36.264Z,32.64
2018-05-06T13:57:36.487Z,33.01
2018-05-06T13:58:36.581Z,33.07
2018-05-06T13:59:36.768Z,33.09
2018-05-06T14:00:37.021Z,33.12
2018-05-06T14:01:37.145Z,32.89
2018-05-06T14:02:37.328Z,33.07
2018-05-06T14:03:37.534Z,33.37
2018-05-06T14:04:37.692Z,33.27
2018-05-06T14:05:37.877Z,33.49
2018-05-06T14:06:38.113Z,33.45
2018-05-06T14:07:38.227Z,33.30
2018-05-06T14:08:38.413Z,33.58
2018-05-06T14:09:38.526Z,33.69
2018-05-06T14:10:38.793Z,33.98
2018-05-06T14:11:38.954Z,34.20
2018-05-06T14:12:39.145Z,34.33
2018-05-06T14:13:39.338Z,34.35
2018-05-06T14:14:39.577Z,34.52
2018-05-06T14:15:39.712Z,34.73
2018-05-06T14:16:39.932Z,34.58
2018-05-06T14:17:40.034Z,34.52
2018-05-06T14:18:40.459Z,33.96
2018-05-06T14:19:40.415Z,34.08
2018-05-06T14:20:40.679Z,34.21
2018-05-06T14:21:40.984Z,34.29
2018-05-06T14:22:41.386Z,33.86
2018-05-06T14:23:41.206Z,33.76
2018-05-06T14:24:41.487Z,33.30
2018-05-06T14:25:42.344Z,33.09
2018-05-06T14:26:41.830Z,32.96
2018-05-06T14:27:42.288Z,32.90
2018-05-06T14:28:42.975Z,33.08
2018-05-06T14:29:43.699Z,33.30
2018-05-06T14:30:43.269Z,33.23
2018-05-06T14:34:37.136Z,33.01
2018-05-06T14:37:13.024Z,32.83
2018-05-06T14:38:13.341Z,33.01
2018-05-06T14:39:11.436Z,32.68
2018-05-06T14:40:11.664Z,32.53
2018-05-06T14:41:11.805Z,32.55
2018-05-06T14:42:11.903Z,32.43
2018-05-06T14:43:12.160Z,32.58
2018-05-06T14:44:12.284Z,32.29
2018-05-06T14:45:12.472Z,32.30
2018-05-06T14:46:12.620Z,32.46
2018-05-06T14:47:12.857Z,32.33
2018-05-06T14:48:12.976Z,32.58
2018-05-06T14:49:13.144Z,32.40
2018-05-06T14:50:13.310Z,32.46
2018-05-06T14:51:13.481Z,32.14
2018-05-06T14:52:13.662Z,32.16
2018-05-06T14:53:14.731Z,32.12
2018-05-06T14:54:14.157Z,32.49
2018-05-06T14:55:14.256Z,32.36
2018-05-06T14:56:15.232Z,32.18
2018-05-06T14:57:14.751Z,32.18
2018-05-06T14:58:14.971Z,32.16
2018-05-06T14:59:15.733Z,32.29
2018-05-06T15:00:15.395Z,32.29
2018-05-06T15:01:15.466Z,32.51
2018-05-06T15:02:15.658Z,32.56
2018-05-06T15:03:15.827Z,32.31
2018-05-06T15:04:16.016Z,32.19
2018-05-06T15:05:16.254Z,32.01
2018-05-06T15:06:16.565Z,32.00
2018-05-06T15:07:16.614Z,31.69
2018-05-06T15:08:16.748Z,31.52
2018-05-06T15:09:17.733Z,31.58
2018-05-06T15:10:17.220Z,31.80
2018-05-06T15:11:17.379Z,31.94
2018-05-06T15:12:17.491Z,31.97
2018-05-06T15:13:17.681Z,32.19
2018-05-06T15:14:17.921Z,32.29
2018-05-06T15:15:18.064Z,32.11
2018-05-06T15:16:18.256Z,32.11
2018-05-06T15:17:18.353Z,31.69
2018-05-06T15:18:18.582Z,31.36
2018-05-06T15:19:18.761Z,30.31
2018-05-06T15:20:18.951Z,30.24
2018-05-06T15:21:19.182Z,30.24
2018-05-06T15:22:19.331Z,30.44
2018-05-06T15:23:19.471Z,30.68
2018-05-06T15:24:19.676Z,30.53
2018-05-06T15:25:19.800Z,30.65
2018-05-06T15:26:20.059Z,31.02
2018-05-06T15:27:20.191Z,31.05
2018-05-06T15:28:20.367Z,30.88
2018-05-06T15:29:20.580Z,30.84
2018-05-06T15:30:20.720Z,30.90
2018-05-06T15:31:20.845Z,30.81
2018-05-06T15:32:21.021Z,30.83
2018-05-06T15:33:21.265Z,31.07
2018-05-06T15:34:21.536Z,31.12
2018-05-06T15:35:21.648Z,31.39
2018-05-06T15:36:21.816Z,31.33
2018-05-06T15:37:22.009Z,31.47
2018-05-06T15:38:22.105Z,31.49
2018-05-06T15:39:22.315Z,31.05
2018-05-06T15:40:22.490Z,31.03
2018-05-06T15:41:22.666Z,31.05
2018-05-06T15:42:22.893Z,30.81
2018-05-06T15:43:23.028Z,30.50
2018-05-06T15:44:23.187Z,30.72
2018-05-06T15:45:23.343Z,30.73
2018-05-06T15:46:23.573Z,30.47
2018-05-06T15:47:23.980Z,30.68
2018-05-06T15:48:24.052Z,30.50
2018-05-06T15:49:24.199Z,30.06
2018-05-06T15:50:24.360Z,29.93
2018-05-06T15:51:24.549Z,29.47
2018-05-06T15:52:24.736Z,29.35
2018-05-06T15:53:24.852Z,29.10
2018-05-06T15:54:25.101Z,28.60
2018-05-06T15:55:25.276Z,28.59
2018-05-06T15:56:25.444Z,28.72
2018-05-06T15:57:25.571Z,28.82
2018-05-06T15:58:25.813Z,29.12
2018-05-06T15:59:25.964Z,29.23
2018-05-06T16:00:26.113Z,29.31
2018-05-06T16:01:26.476Z,29.27
2018-05-06T16:02:26.539Z,29.34
2018-05-06T16:03:26.715Z,29.42
2018-05-06T16:04:26.847Z,29.36
2018-05-06T16:05:27.042Z,29.19
2018-05-06T16:06:27.291Z,29.39
2018-05-06T16:07:27.461Z,29.42
2018-05-06T16:08:27.642Z,29.54
2018-05-06T16:09:27.804Z,29.81
2018-05-06T16:10:28.054Z,29.56
2018-05-06T16:11:28.153Z,29.50
2018-05-06T16:12:28.435Z,29.22
2018-05-06T16:13:29.243Z,29.01
2018-05-06T16:14:28.603Z,28.88
2018-05-06T16:15:28.805Z,28.75
2018-05-06T16:16:28.934Z,28.78
2018-05-06T16:17:29.163Z,28.62
2018-05-06T16:18:29.362Z,28.20
2018-05-06T16:19:29.521Z,28.27
2018-05-06T16:20:29.749Z,28.11
2018-05-06T16:21:29.884Z,27.82
2018-05-06T16:22:30.079Z,27.49
2018-05-06T16:23:30.194Z,27.36
2018-05-06T16:24:30.394Z,26.88
2018-05-06T16:25:30.552Z,26.36
2018-05-06T16:26:30.783Z,26.07
2018-05-06T16:27:30.836Z,25.63
2018-05-06T16:28:31.053Z,25.06
2018-05-06T16:29:31.251Z,24.99
2018-05-06T16:30:31.354Z,25.13
2018-05-06T16:31:31.558Z,25.11
2018-05-06T16:32:31.827Z,25.26
2018-05-06T16:33:31.931Z,24.91
2018-05-06T16:34:32.112Z,24.78
2018-05-06T16:35:32.792Z,24.78
2018-05-06T16:36:32.413Z,24.84
2018-05-06T16:37:32.569Z,24.66
2018-05-06T16:38:32.761Z,24.36
2018-05-06T16:39:32.934Z,24.48
2018-05-06T16:40:33.091Z,24.60
2018-05-06T16:41:33.284Z,24.51
2018-05-06T16:42:33.479Z,24.47
2018-05-06T16:43:33.690Z,24.58
2018-05-06T16:44:33.790Z,24.50
2018-05-06T16:45:33.945Z,24.38
2018-05-06T16:46:34.135Z,24.28
2018-05-06T16:47:34.288Z,24.16
2018-05-06T16:48:34.571Z,24.06
2018-05-06T16:49:35.645Z,24.06
2018-05-06T16:50:34.856Z,23.95
2018-05-06T16:51:35.002Z,23.91
2018-05-06T16:52:35.163Z,23.80
2018-05-06T16:53:35.348Z,23.74
2018-05-06T16:54:35.550Z,23.73
2018-05-06T16:55:35.730Z,23.66
2018-05-06T16:56:35.844Z,23.48
2018-05-06T16:57:36.032Z,23.50
2018-05-06T16:58:36.251Z,23.51
2018-05-06T16:59:36.292Z,23.28
2018-05-06T17:00:36.559Z,23.32